sensor_id;sensor_type;location;lat;lon;timestamp;P1;durP1;ratioP1;P2;durP2;ratioP2
64678;SDS011;51094;53.864;27.676;2023-07-29T00:00:44;1.33;;;1.33;;
64678;SDS011;51094;53.864;27.676;2023-07-29T00:03:11;1.20;;;1.20;;
64678;SDS011;51094;53.864;27.676;2023-07-29T00:05:38;1.13;;;1.13;;
64678;SDS011;51094;53.864;27.676;2023-07-29T00:08:06;1.40;;;1.40;;
64678;SDS011;51094;53.864;27.676;2023-07-29T00:10:35;1.67;;;1.67;;
64678;SDS011;51094;53.864;27.676;2023-07-29T00:13:03;2.08;;;1.98;;
64678;SDS011;51094;53.864;27.676;2023-07-29T00:15:30;1.80;;;1.80;;
64678;SDS011;51094;53.864;27.676;2023-07-29T00:17:57;2.05;;;1.95;;
64678;SDS011;51094;53.864;27.676;2023-07-29T00:20:24;1.88;;;1.88;;
64678;SDS011;51094;53.864;27.676;2023-07-29T00:22:51;1.98;;;1.98;;
64678;SDS011;51094;53.864;27.676;2023-07-29T00:25:21;2.13;;;2.13;;
64678;SDS011;51094;53.864;27.676;2023-07-29T00:27:49;2.00;;;2.00;;
64678;SDS011;51094;53.864;27.676;2023-07-29T00:30:16;1.60;;;1.60;;
64678;SDS011;51094;53.864;27.676;2023-07-29T00:32:43;1.70;;;1.70;;
64678;SDS011;51094;53.864;27.676;2023-07-29T00:35:12;1.60;;;1.60;;
64678;SDS011;51094;53.864;27.676;2023-07-29T00:37:39;1.60;;;1.60;;
64678;SDS011;51094;53.864;27.676;2023-07-29T00:40:13;1.60;;;1.60;;
64678;SDS011;51094;53.864;27.676;2023-07-29T00:42:43;1.70;;;1.70;;
64678;SDS011;51094;53.864;27.676;2023-07-29T00:45:10;1.52;;;1.52;;
64678;SDS011;51094;53.864;27.676;2023-07-29T00:47:37;1.58;;;1.58;;
64678;SDS011;51094;53.864;27.676;2023-07-29T00:50:05;1.70;;;1.70;;
64678;SDS011;51094;53.864;27.676;2023-07-29T00:52:33;1.50;;;1.50;;
64678;SDS011;51094;53.864;27.676;2023-07-29T00:55:00;1.48;;;1.48;;
64678;SDS011;51094;53.864;27.676;2023-07-29T00:57:27;1.70;;;1.70;;
64678;SDS011;51094;53.864;27.676;2023-07-29T00:59:56;1.45;;;1.45;;
64678;SDS011;51094;53.864;27.676;2023-07-29T01:02:24;1.55;;;1.55;;
64678;SDS011;51094;53.864;27.676;2023-07-29T01:04:54;1.58;;;1.58;;
64678;SDS011;51094;53.864;27.676;2023-07-29T01:08:25;1.55;;;1.55;;
64678;SDS011;51094;53.864;27.676;2023-07-29T01:11:03;1.70;;;1.70;;
64678;SDS011;51094;53.864;27.676;2023-07-29T01:13:41;1.60;;;1.60;;
64678;SDS011;51094;53.864;27.676;2023-07-29T01:16:20;2.00;;;2.00;;
64678;SDS011;51094;53.864;27.676;2023-07-29T01:18:52;2.00;;;2.00;;
64678;SDS011;51094;53.864;27.676;2023-07-29T01:21:22;1.90;;;1.90;;
64678;SDS011;51094;53.864;27.676;2023-07-29T01:23:53;1.65;;;1.65;;
64678;SDS011;51094;53.864;27.676;2023-07-29T01:26:24;1.85;;;1.85;;
64678;SDS011;51094;53.864;27.676;2023-07-29T01:28:51;1.80;;;1.80;;
64678;SDS011;51094;53.864;27.676;2023-07-29T01:31:22;1.70;;;1.70;;
64678;SDS011;51094;53.864;27.676;2023-07-29T01:33:58;1.70;;;1.70;;
64678;SDS011;51094;53.864;27.676;2023-07-29T01:36:31;1.65;;;1.65;;
64678;SDS011;51094;53.864;27.676;2023-07-29T01:41:29;1.80;;;1.80;;
64678;SDS011;51094;53.864;27.676;2023-07-29T01:43:57;1.70;;;1.70;;
64678;SDS011;51094;53.864;27.676;2023-07-29T01:46:25;1.83;;;1.83;;
64678;SDS011;51094;53.864;27.676;2023-07-29T01:48:51;2.10;;;2.10;;
64678;SDS011;51094;53.864;27.676;2023-07-29T01:51:18;1.70;;;1.70;;
64678;SDS011;51094;53.864;27.676;2023-07-29T01:53:46;1.80;;;1.80;;
64678;SDS011;51094;53.864;27.676;2023-07-29T01:56:13;1.70;;;1.70;;
64678;SDS011;51094;53.864;27.676;2023-07-29T01:58:48;1.70;;;1.70;;
64678;SDS011;51094;53.864;27.676;2023-07-29T02:01:15;2.03;;;2.03;;
64678;SDS011;51094;53.864;27.676;2023-07-29T02:03:42;2.15;;;2.15;;
64678;SDS011;51094;53.864;27.676;2023-07-29T02:06:09;1.92;;;1.92;;
64678;SDS011;51094;53.864;27.676;2023-07-29T02:08:37;2.25;;;2.22;;
64678;SDS011;51094;53.864;27.676;2023-07-29T02:11:07;2.08;;;2.08;;
64678;SDS011;51094;53.864;27.676;2023-07-29T02:13:34;2.10;;;2.10;;
64678;SDS011;51094;53.864;27.676;2023-07-29T02:16:01;2.10;;;2.10;;
64678;SDS011;51094;53.864;27.676;2023-07-29T02:18:28;1.90;;;1.90;;
64678;SDS011;51094;53.864;27.676;2023-07-29T02:20:55;1.90;;;1.90;;
64678;SDS011;51094;53.864;27.676;2023-07-29T02:23:21;1.98;;;1.98;;
64678;SDS011;51094;53.864;27.676;2023-07-29T02:25:49;1.90;;;1.90;;
64678;SDS011;51094;53.864;27.676;2023-07-29T02:28:17;2.03;;;2.03;;
64678;SDS011;51094;53.864;27.676;2023-07-29T02:30:43;1.90;;;1.90;;
64678;SDS011;51094;53.864;27.676;2023-07-29T02:33:12;2.00;;;2.00;;
64678;SDS011;51094;53.864;27.676;2023-07-29T02:35:39;1.73;;;1.73;;
64678;SDS011;51094;53.864;27.676;2023-07-29T02:38:06;1.95;;;1.95;;
64678;SDS011;51094;53.864;27.676;2023-07-29T02:40:33;2.00;;;2.00;;
64678;SDS011;51094;53.864;27.676;2023-07-29T02:43:00;2.10;;;2.10;;
64678;SDS011;51094;53.864;27.676;2023-07-29T02:45:26;2.08;;;2.08;;
64678;SDS011;51094;53.864;27.676;2023-07-29T02:47:53;2.08;;;2.08;;
64678;SDS011;51094;53.864;27.676;2023-07-29T02:50:20;2.15;;;2.15;;
64678;SDS011;51094;53.864;27.676;2023-07-29T02:52:47;2.03;;;2.03;;
64678;SDS011;51094;53.864;27.676;2023-07-29T02:55:17;2.25;;;2.25;;
64678;SDS011;51094;53.864;27.676;2023-07-29T02:57:44;2.10;;;2.10;;
64678;SDS011;51094;53.864;27.676;2023-07-29T03:00:11;2.40;;;2.40;;
64678;SDS011;51094;53.864;27.676;2023-07-29T03:02:38;2.50;;;2.47;;
64678;SDS011;51094;53.864;27.676;2023-07-29T03:05:05;2.30;;;2.30;;
64678;SDS011;51094;53.864;27.676;2023-07-29T03:07:32;2.47;;;2.47;;
64678;SDS011;51094;53.864;27.676;2023-07-29T03:09:59;2.53;;;2.53;;
64678;SDS011;51094;53.864;27.676;2023-07-29T03:12:26;2.40;;;2.40;;
64678;SDS011;51094;53.864;27.676;2023-07-29T03:14:53;2.33;;;2.33;;
64678;SDS011;51094;53.864;27.676;2023-07-29T03:17:20;2.70;;;2.70;;
64678;SDS011;51094;53.864;27.676;2023-07-29T03:19:47;2.90;;;2.90;;
64678;SDS011;51094;53.864;27.676;2023-07-29T03:22:14;2.75;;;2.75;;
64678;SDS011;51094;53.864;27.676;2023-07-29T03:24:41;3.03;;;3.00;;
64678;SDS011;51094;53.864;27.676;2023-07-29T03:27:09;3.20;;;3.20;;
64678;SDS011;51094;53.864;27.676;2023-07-29T03:29:36;3.72;;;3.72;;
64678;SDS011;51094;53.864;27.676;2023-07-29T03:32:03;4.20;;;4.13;;
64678;SDS011;51094;53.864;27.676;2023-07-29T03:34:30;4.78;;;4.68;;
64678;SDS011;51094;53.864;27.676;2023-07-29T03:36:59;4.53;;;4.43;;
64678;SDS011;51094;53.864;27.676;2023-07-29T03:39:26;4.60;;;4.57;;
64678;SDS011;51094;53.864;27.676;2023-07-29T03:41:53;4.53;;;4.43;;
64678;SDS011;51094;53.864;27.676;2023-07-29T03:44:19;4.93;;;4.82;;
64678;SDS011;51094;53.864;27.676;2023-07-29T03:46:46;4.88;;;4.78;;
64678;SDS011;51094;53.864;27.676;2023-07-29T03:49:13;5.13;;;5.03;;
64678;SDS011;51094;53.864;27.676;2023-07-29T03:51:40;5.20;;;5.10;;
64678;SDS011;51094;53.864;27.676;2023-07-29T03:54:07;5.38;;;5.28;;
64678;SDS011;51094;53.864;27.676;2023-07-29T03:56:34;4.50;;;4.40;;
64678;SDS011;51094;53.864;27.676;2023-07-29T03:59:03;4.40;;;4.30;;
64678;SDS011;51094;53.864;27.676;2023-07-29T04:01:33;4.80;;;4.70;;
64678;SDS011;51094;53.864;27.676;2023-07-29T04:04:00;4.70;;;4.60;;
64678;SDS011;51094;53.864;27.676;2023-07-29T04:06:27;4.80;;;4.70;;
64678;SDS011;51094;53.864;27.676;2023-07-29T04:08:54;4.30;;;4.28;;
64678;SDS011;51094;53.864;27.676;2023-07-29T04:11:21;3.58;;;3.58;;
64678;SDS011;51094;53.864;27.676;2023-07-29T04:13:48;3.63;;;3.63;;
64678;SDS011;51094;53.864;27.676;2023-07-29T04:16:15;4.05;;;3.95;;
64678;SDS011;51094;53.864;27.676;2023-07-29T04:18:43;3.60;;;3.50;;
64678;SDS011;51094;53.864;27.676;2023-07-29T04:21:10;2.90;;;2.90;;
64678;SDS011;51094;53.864;27.676;2023-07-29T04:23:37;2.90;;;2.90;;
64678;SDS011;51094;53.864;27.676;2023-07-29T04:26:04;2.67;;;2.67;;
64678;SDS011;51094;53.864;27.676;2023-07-29T04:28:31;2.70;;;2.70;;
64678;SDS011;51094;53.864;27.676;2023-07-29T04:30:58;2.80;;;2.80;;
64678;SDS011;51094;53.864;27.676;2023-07-29T04:33:24;2.40;;;2.40;;
64678;SDS011;51094;53.864;27.676;2023-07-29T04:35:51;2.63;;;2.63;;
64678;SDS011;51094;53.864;27.676;2023-07-29T04:38:18;2.42;;;2.42;;
64678;SDS011;51094;53.864;27.676;2023-07-29T04:40:45;2.40;;;2.40;;
64678;SDS011;51094;53.864;27.676;2023-07-29T04:43:13;2.28;;;2.28;;
64678;SDS011;51094;53.864;27.676;2023-07-29T04:45:43;2.40;;;2.40;;
64678;SDS011;51094;53.864;27.676;2023-07-29T04:48:10;2.17;;;2.17;;
64678;SDS011;51094;53.864;27.676;2023-07-29T04:50:37;2.38;;;2.38;;
64678;SDS011;51094;53.864;27.676;2023-07-29T04:53:05;2.30;;;2.30;;
64678;SDS011;51094;53.864;27.676;2023-07-29T04:55:32;2.22;;;2.22;;
64678;SDS011;51094;53.864;27.676;2023-07-29T04:57:59;2.00;;;2.00;;
64678;SDS011;51094;53.864;27.676;2023-07-29T05:00:26;2.25;;;2.25;;
64678;SDS011;51094;53.864;27.676;2023-07-29T05:02:53;2.00;;;2.00;;
64678;SDS011;51094;53.864;27.676;2023-07-29T05:05:20;2.00;;;2.00;;
64678;SDS011;51094;53.864;27.676;2023-07-29T05:07:47;2.05;;;2.05;;
64678;SDS011;51094;53.864;27.676;2023-07-29T05:10:14;2.40;;;2.40;;
64678;SDS011;51094;53.864;27.676;2023-07-29T05:12:41;2.28;;;2.28;;
64678;SDS011;51094;53.864;27.676;2023-07-29T05:15:09;2.67;;;2.67;;
64678;SDS011;51094;53.864;27.676;2023-07-29T05:17:36;2.55;;;2.55;;
64678;SDS011;51094;53.864;27.676;2023-07-29T05:20:03;2.33;;;2.33;;
64678;SDS011;51094;53.864;27.676;2023-07-29T05:22:30;1.98;;;1.98;;
64678;SDS011;51094;53.864;27.676;2023-07-29T05:24:57;1.77;;;1.77;;
64678;SDS011;51094;53.864;27.676;2023-07-29T05:27:24;1.80;;;1.80;;
64678;SDS011;51094;53.864;27.676;2023-07-29T05:29:51;2.05;;;2.05;;
64678;SDS011;51094;53.864;27.676;2023-07-29T05:32:18;1.83;;;1.83;;
64678;SDS011;51094;53.864;27.676;2023-07-29T05:34:45;1.70;;;1.70;;
64678;SDS011;51094;53.864;27.676;2023-07-29T05:37:11;2.10;;;2.10;;
64678;SDS011;51094;53.864;27.676;2023-07-29T05:39:38;2.60;;;2.60;;
64678;SDS011;51094;53.864;27.676;2023-07-29T05:42:05;2.65;;;2.65;;
64678;SDS011;51094;53.864;27.676;2023-07-29T05:44:32;1.40;;;1.40;;
64678;SDS011;51094;53.864;27.676;2023-07-29T05:46:59;1.55;;;1.55;;
64678;SDS011;51094;53.864;27.676;2023-07-29T05:49:27;1.48;;;1.48;;
64678;SDS011;51094;53.864;27.676;2023-07-29T05:51:54;1.48;;;1.48;;
64678;SDS011;51094;53.864;27.676;2023-07-29T05:54:21;1.30;;;1.30;;
64678;SDS011;51094;53.864;27.676;2023-07-29T05:56:48;1.40;;;1.40;;
64678;SDS011;51094;53.864;27.676;2023-07-29T05:59:14;1.30;;;1.30;;
64678;SDS011;51094;53.864;27.676;2023-07-29T06:01:41;1.10;;;1.10;;
64678;SDS011;51094;53.864;27.676;2023-07-29T06:04:08;1.00;;;1.00;;
64678;SDS011;51094;53.864;27.676;2023-07-29T06:06:35;1.20;;;1.20;;
64678;SDS011;51094;53.864;27.676;2023-07-29T06:09:03;1.50;;;1.50;;
64678;SDS011;51094;53.864;27.676;2023-07-29T06:11:29;1.52;;;1.52;;
64678;SDS011;51094;53.864;27.676;2023-07-29T06:13:57;1.73;;;1.73;;
64678;SDS011;51094;53.864;27.676;2023-07-29T06:16:24;1.10;;;1.10;;
64678;SDS011;51094;53.864;27.676;2023-07-29T06:18:51;1.23;;;1.23;;
64678;SDS011;51094;53.864;27.676;2023-07-29T06:21:19;1.15;;;1.15;;
64678;SDS011;51094;53.864;27.676;2023-07-29T06:23:46;1.20;;;1.20;;
64678;SDS011;51094;53.864;27.676;2023-07-29T06:26:13;1.15;;;1.15;;
64678;SDS011;51094;53.864;27.676;2023-07-29T06:28:41;1.50;;;1.50;;
64678;SDS011;51094;53.864;27.676;2023-07-29T06:31:08;1.20;;;1.20;;
64678;SDS011;51094;53.864;27.676;2023-07-29T06:33:35;1.30;;;1.30;;
64678;SDS011;51094;53.864;27.676;2023-07-29T06:36:02;1.30;;;1.30;;
64678;SDS011;51094;53.864;27.676;2023-07-29T06:38:29;1.60;;;1.60;;
64678;SDS011;51094;53.864;27.676;2023-07-29T06:40:56;1.98;;;1.98;;
64678;SDS011;51094;53.864;27.676;2023-07-29T06:43:23;1.60;;;1.60;;
64678;SDS011;51094;53.864;27.676;2023-07-29T06:45:50;1.55;;;1.55;;
64678;SDS011;51094;53.864;27.676;2023-07-29T06:48:17;1.65;;;1.65;;
64678;SDS011;51094;53.864;27.676;2023-07-29T06:50:45;1.38;;;1.38;;
64678;SDS011;51094;53.864;27.676;2023-07-29T06:53:12;1.30;;;1.30;;
64678;SDS011;51094;53.864;27.676;2023-07-29T06:55:38;1.25;;;1.25;;
64678;SDS011;51094;53.864;27.676;2023-07-29T06:58:06;1.30;;;1.30;;
64678;SDS011;51094;53.864;27.676;2023-07-29T07:00:33;1.40;;;1.40;;
64678;SDS011;51094;53.864;27.676;2023-07-29T07:03:00;2.95;;;2.95;;
64678;SDS011;51094;53.864;27.676;2023-07-29T07:05:27;1.95;;;1.95;;
64678;SDS011;51094;53.864;27.676;2023-07-29T07:07:54;3.03;;;3.03;;
64678;SDS011;51094;53.864;27.676;2023-07-29T07:10:21;2.10;;;2.10;;
64678;SDS011;51094;53.864;27.676;2023-07-29T07:12:47;1.35;;;1.35;;
64678;SDS011;51094;53.864;27.676;2023-07-29T07:15:14;1.70;;;1.70;;
64678;SDS011;51094;53.864;27.676;2023-07-29T07:17:41;1.70;;;1.70;;
64678;SDS011;51094;53.864;27.676;2023-07-29T07:20:08;1.70;;;1.70;;
64678;SDS011;51094;53.864;27.676;2023-07-29T07:22:35;1.50;;;1.50;;
64678;SDS011;51094;53.864;27.676;2023-07-29T07:25:02;3.70;;;3.70;;
64678;SDS011;51094;53.864;27.676;2023-07-29T07:27:31;2.63;;;2.63;;
64678;SDS011;51094;53.864;27.676;2023-07-29T07:29:58;1.85;;;1.85;;
64678;SDS011;51094;53.864;27.676;2023-07-29T07:32:25;1.40;;;1.40;;
64678;SDS011;51094;53.864;27.676;2023-07-29T07:34:52;1.50;;;1.50;;
64678;SDS011;51094;53.864;27.676;2023-07-29T07:37:19;1.63;;;1.63;;
64678;SDS011;51094;53.864;27.676;2023-07-29T07:39:46;3.65;;;3.65;;
64678;SDS011;51094;53.864;27.676;2023-07-29T07:42:13;1.48;;;1.48;;
64678;SDS011;51094;53.864;27.676;2023-07-29T07:44:40;2.10;;;2.10;;
64678;SDS011;51094;53.864;27.676;2023-07-29T07:47:07;2.10;;;2.10;;
64678;SDS011;51094;53.864;27.676;2023-07-29T07:49:33;1.38;;;1.38;;
64678;SDS011;51094;53.864;27.676;2023-07-29T07:52:03;2.17;;;2.17;;
64678;SDS011;51094;53.864;27.676;2023-07-29T07:54:30;2.33;;;2.33;;
64678;SDS011;51094;53.864;27.676;2023-07-29T07:56:57;1.10;;;1.10;;
64678;SDS011;51094;53.864;27.676;2023-07-29T07:59:24;0.98;;;0.98;;
64678;SDS011;51094;53.864;27.676;2023-07-29T08:01:51;1.00;;;1.00;;
64678;SDS011;51094;53.864;27.676;2023-07-29T08:04:18;1.20;;;1.20;;
64678;SDS011;51094;53.864;27.676;2023-07-29T08:06:45;1.83;;;1.83;;
64678;SDS011;51094;53.864;27.676;2023-07-29T08:09:12;0.93;;;0.93;;
64678;SDS011;51094;53.864;27.676;2023-07-29T08:11:39;1.80;;;1.80;;
64678;SDS011;51094;53.864;27.676;2023-07-29T08:14:06;0.90;;;0.90;;
64678;SDS011;51094;53.864;27.676;2023-07-29T08:16:33;0.70;;;0.70;;
64678;SDS011;51094;53.864;27.676;2023-07-29T08:19:00;1.33;;;1.33;;
64678;SDS011;51094;53.864;27.676;2023-07-29T08:21:26;0.70;;;0.70;;
64678;SDS011;51094;53.864;27.676;2023-07-29T08:23:54;0.90;;;0.90;;
64678;SDS011;51094;53.864;27.676;2023-07-29T08:26:20;0.77;;;0.77;;
64678;SDS011;51094;53.864;27.676;2023-07-29T08:28:48;0.60;;;0.60;;
64678;SDS011;51094;53.864;27.676;2023-07-29T08:31:15;0.70;;;0.70;;
64678;SDS011;51094;53.864;27.676;2023-07-29T08:33:41;0.70;;;0.70;;
64678;SDS011;51094;53.864;27.676;2023-07-29T08:36:08;0.77;;;0.77;;
64678;SDS011;51094;53.864;27.676;2023-07-29T08:38:35;0.80;;;0.80;;
64678;SDS011;51094;53.864;27.676;2023-07-29T08:41:16;1.00;;;1.00;;
64678;SDS011;51094;53.864;27.676;2023-07-29T08:44:01;4.47;;;4.47;;
64678;SDS011;51094;53.864;27.676;2023-07-29T08:46:39;0.80;;;0.80;;
64678;SDS011;51094;53.864;27.676;2023-07-29T08:49:07;0.80;;;0.80;;
64678;SDS011;51094;53.864;27.676;2023-07-29T08:51:34;0.50;;;0.50;;
64678;SDS011;51094;53.864;27.676;2023-07-29T08:54:01;0.60;;;0.60;;
64678;SDS011;51094;53.864;27.676;2023-07-29T08:56:28;0.65;;;0.65;;
64678;SDS011;51094;53.864;27.676;2023-07-29T08:58:56;0.80;;;0.80;;
64678;SDS011;51094;53.864;27.676;2023-07-29T09:01:24;2.17;;;2.17;;
64678;SDS011;51094;53.864;27.676;2023-07-29T09:03:51;3.55;;;3.55;;
64678;SDS011;51094;53.864;27.676;2023-07-29T09:06:18;1.42;;;1.42;;
64678;SDS011;51094;53.864;27.676;2023-07-29T09:08:47;1.20;;;1.20;;
64678;SDS011;51094;53.864;27.676;2023-07-29T09:11:17;0.70;;;0.70;;
64678;SDS011;51094;53.864;27.676;2023-07-29T09:13:44;0.73;;;0.73;;
64678;SDS011;51094;53.864;27.676;2023-07-29T09:16:10;0.80;;;0.80;;
64678;SDS011;51094;53.864;27.676;2023-07-29T09:18:37;1.35;;;1.35;;
64678;SDS011;51094;53.864;27.676;2023-07-29T09:21:04;1.13;;;1.13;;
64678;SDS011;51094;53.864;27.676;2023-07-29T09:23:40;0.88;;;0.88;;
64678;SDS011;51094;53.864;27.676;2023-07-29T09:26:08;0.77;;;0.77;;
64678;SDS011;51094;53.864;27.676;2023-07-29T09:28:39;0.80;;;0.80;;
64678;SDS011;51094;53.864;27.676;2023-07-29T09:31:07;0.80;;;0.80;;
64678;SDS011;51094;53.864;27.676;2023-07-29T09:33:46;0.80;;;0.80;;
64678;SDS011;51094;53.864;27.676;2023-07-29T09:36:13;0.80;;;0.80;;
64678;SDS011;51094;53.864;27.676;2023-07-29T09:38:40;0.80;;;0.80;;
64678;SDS011;51094;53.864;27.676;2023-07-29T09:41:07;0.90;;;0.90;;
64678;SDS011;51094;53.864;27.676;2023-07-29T09:43:34;1.10;;;1.10;;
64678;SDS011;51094;53.864;27.676;2023-07-29T09:46:04;0.90;;;0.90;;
64678;SDS011;51094;53.864;27.676;2023-07-29T09:48:37;1.00;;;1.00;;
64678;SDS011;51094;53.864;27.676;2023-07-29T09:51:14;0.88;;;0.88;;
64678;SDS011;51094;53.864;27.676;2023-07-29T09:53:42;0.70;;;0.70;;
64678;SDS011;51094;53.864;27.676;2023-07-29T09:56:14;1.00;;;1.00;;
64678;SDS011;51094;53.864;27.676;2023-07-29T09:58:45;1.02;;;1.02;;
64678;SDS011;51094;53.864;27.676;2023-07-29T10:01:13;0.90;;;0.90;;
64678;SDS011;51094;53.864;27.676;2023-07-29T10:03:40;0.77;;;0.77;;
64678;SDS011;51094;53.864;27.676;2023-07-29T10:06:09;0.80;;;0.80;;
64678;SDS011;51094;53.864;27.676;2023-07-29T10:08:37;0.70;;;0.70;;
64678;SDS011;51094;53.864;27.676;2023-07-29T10:11:09;0.80;;;0.80;;
64678;SDS011;51094;53.864;27.676;2023-07-29T10:13:37;0.88;;;0.88;;
64678;SDS011;51094;53.864;27.676;2023-07-29T10:16:05;0.70;;;0.70;;
64678;SDS011;51094;53.864;27.676;2023-07-29T10:18:32;1.00;;;1.00;;
64678;SDS011;51094;53.864;27.676;2023-07-29T10:21:00;0.90;;;0.90;;
64678;SDS011;51094;53.864;27.676;2023-07-29T10:23:32;1.80;;;1.80;;
64678;SDS011;51094;53.864;27.676;2023-07-29T10:26:04;0.90;;;0.90;;
64678;SDS011;51094;53.864;27.676;2023-07-29T10:28:32;1.00;;;1.00;;
64678;SDS011;51094;53.864;27.676;2023-07-29T10:31:01;0.73;;;0.73;;
64678;SDS011;51094;53.864;27.676;2023-07-29T10:33:30;1.70;;;1.70;;
64678;SDS011;51094;53.864;27.676;2023-07-29T10:35:59;0.90;;;0.90;;
64678;SDS011;51094;53.864;27.676;2023-07-29T10:38:27;0.80;;;0.80;;
64678;SDS011;51094;53.864;27.676;2023-07-29T10:40:55;0.90;;;0.90;;
64678;SDS011;51094;53.864;27.676;2023-07-29T10:45:55;0.70;;;0.70;;
64678;SDS011;51094;53.864;27.676;2023-07-29T10:48:41;1.20;;;1.20;;
64678;SDS011;51094;53.864;27.676;2023-07-29T10:54:01;0.70;;;0.70;;
64678;SDS011;51094;53.864;27.676;2023-07-29T10:56:33;0.80;;;0.80;;
64678;SDS011;51094;53.864;27.676;2023-07-29T11:01:38;0.80;;;0.80;;
64678;SDS011;51094;53.864;27.676;2023-07-29T11:07:01;0.80;;;0.80;;
64678;SDS011;51094;53.864;27.676;2023-07-29T11:17:49;0.80;;;0.80;;
64678;SDS011;51094;53.864;27.676;2023-07-29T11:20:19;0.70;;;0.70;;
64678;SDS011;51094;53.864;27.676;2023-07-29T11:22:48;0.70;;;0.70;;
64678;SDS011;51094;53.864;27.676;2023-07-29T11:25:16;0.80;;;0.80;;
64678;SDS011;51094;53.864;27.676;2023-07-29T11:27:44;0.70;;;0.70;;
64678;SDS011;51094;53.864;27.676;2023-07-29T11:30:12;0.73;;;0.73;;
64678;SDS011;51094;53.864;27.676;2023-07-29T11:32:41;0.80;;;0.80;;
64678;SDS011;51094;53.864;27.676;2023-07-29T11:35:11;0.77;;;0.77;;
64678;SDS011;51094;53.864;27.676;2023-07-29T11:37:39;0.88;;;0.88;;
64678;SDS011;51094;53.864;27.676;2023-07-29T11:40:06;0.70;;;0.70;;
64678;SDS011;51094;53.864;27.676;2023-07-29T11:42:34;0.80;;;0.80;;
64678;SDS011;51094;53.864;27.676;2023-07-29T11:45:02;0.80;;;0.80;;
64678;SDS011;51094;53.864;27.676;2023-07-29T11:47:30;0.80;;;0.80;;
64678;SDS011;51094;53.864;27.676;2023-07-29T11:49:58;0.95;;;0.95;;
64678;SDS011;51094;53.864;27.676;2023-07-29T11:52:29;0.85;;;0.85;;
64678;SDS011;51094;53.864;27.676;2023-07-29T11:54:59;0.70;;;0.70;;
64678;SDS011;51094;53.864;27.676;2023-07-29T11:57:27;0.70;;;0.70;;
64678;SDS011;51094;53.864;27.676;2023-07-29T11:59:55;0.60;;;0.60;;
64678;SDS011;51094;53.864;27.676;2023-07-29T12:02:22;0.80;;;0.80;;
64678;SDS011;51094;53.864;27.676;2023-07-29T12:04:50;0.70;;;0.70;;
64678;SDS011;51094;53.864;27.676;2023-07-29T12:07:17;0.70;;;0.70;;
64678;SDS011;51094;53.864;27.676;2023-07-29T12:09:46;0.70;;;0.70;;
64678;SDS011;51094;53.864;27.676;2023-07-29T12:12:13;0.80;;;0.80;;
64678;SDS011;51094;53.864;27.676;2023-07-29T12:14:45;0.60;;;0.60;;
64678;SDS011;51094;53.864;27.676;2023-07-29T12:17:13;0.80;;;0.80;;
64678;SDS011;51094;53.864;27.676;2023-07-29T12:19:41;0.68;;;0.68;;
64678;SDS011;51094;53.864;27.676;2023-07-29T12:22:09;1.00;;;1.00;;
64678;SDS011;51094;53.864;27.676;2023-07-29T12:24:37;0.90;;;0.90;;
64678;SDS011;51094;53.864;27.676;2023-07-29T12:27:15;1.00;;;1.00;;
64678;SDS011;51094;53.864;27.676;2023-07-29T12:29:42;0.77;;;0.77;;
64678;SDS011;51094;53.864;27.676;2023-07-29T12:32:10;0.80;;;0.80;;
64678;SDS011;51094;53.864;27.676;2023-07-29T12:34:38;0.80;;;0.80;;
64678;SDS011;51094;53.864;27.676;2023-07-29T12:37:06;0.95;;;0.95;;
64678;SDS011;51094;53.864;27.676;2023-07-29T12:39:34;1.20;;;1.20;;
64678;SDS011;51094;53.864;27.676;2023-07-29T12:42:06;1.17;;;1.17;;
64678;SDS011;51094;53.864;27.676;2023-07-29T12:44:33;0.85;;;0.85;;
64678;SDS011;51094;53.864;27.676;2023-07-29T12:47:02;0.90;;;0.90;;
64678;SDS011;51094;53.864;27.676;2023-07-29T12:49:30;0.90;;;0.90;;
64678;SDS011;51094;53.864;27.676;2023-07-29T12:51:58;0.88;;;0.88;;
64678;SDS011;51094;53.864;27.676;2023-07-29T12:54:26;0.90;;;0.90;;
64678;SDS011;51094;53.864;27.676;2023-07-29T12:56:53;0.70;;;0.70;;
64678;SDS011;51094;53.864;27.676;2023-07-29T12:59:20;0.80;;;0.80;;
64678;SDS011;51094;53.864;27.676;2023-07-29T13:01:47;1.00;;;1.00;;
64678;SDS011;51094;53.864;27.676;2023-07-29T13:04:14;1.10;;;1.10;;
64678;SDS011;51094;53.864;27.676;2023-07-29T13:06:41;0.82;;;0.82;;
64678;SDS011;51094;53.864;27.676;2023-07-29T13:09:08;1.10;;;1.10;;
64678;SDS011;51094;53.864;27.676;2023-07-29T13:11:35;0.90;;;0.90;;
64678;SDS011;51094;53.864;27.676;2023-07-29T13:14:02;0.80;;;0.80;;
64678;SDS011;51094;53.864;27.676;2023-07-29T13:16:29;0.80;;;0.80;;
64678;SDS011;51094;53.864;27.676;2023-07-29T13:18:55;0.80;;;0.80;;
64678;SDS011;51094;53.864;27.676;2023-07-29T13:21:23;0.90;;;0.90;;
64678;SDS011;51094;53.864;27.676;2023-07-29T13:23:51;0.88;;;0.88;;
64678;SDS011;51094;53.864;27.676;2023-07-29T13:26:21;0.90;;;0.90;;
64678;SDS011;51094;53.864;27.676;2023-07-29T13:28:47;1.10;;;1.10;;
64678;SDS011;51094;53.864;27.676;2023-07-29T13:31:14;1.00;;;1.00;;
64678;SDS011;51094;53.864;27.676;2023-07-29T13:33:41;0.85;;;0.85;;
64678;SDS011;51094;53.864;27.676;2023-07-29T13:36:08;1.10;;;1.10;;
64678;SDS011;51094;53.864;27.676;2023-07-29T13:38:35;1.00;;;1.00;;
64678;SDS011;51094;53.864;27.676;2023-07-29T13:41:02;1.45;;;1.35;;
64678;SDS011;51094;53.864;27.676;2023-07-29T13:43:29;1.75;;;1.65;;
64678;SDS011;51094;53.864;27.676;2023-07-29T13:45:56;0.90;;;0.90;;
64678;SDS011;51094;53.864;27.676;2023-07-29T13:48:23;0.90;;;0.90;;
64678;SDS011;51094;53.864;27.676;2023-07-29T13:50:50;0.85;;;0.85;;
64678;SDS011;51094;53.864;27.676;2023-07-29T13:53:17;1.00;;;1.00;;
64678;SDS011;51094;53.864;27.676;2023-07-29T13:55:44;1.00;;;1.00;;
64678;SDS011;51094;53.864;27.676;2023-07-29T13:58:12;0.85;;;0.85;;
64678;SDS011;51094;53.864;27.676;2023-07-29T14:00:39;0.80;;;0.80;;
64678;SDS011;51094;53.864;27.676;2023-07-29T14:03:05;0.80;;;0.80;;
64678;SDS011;51094;53.864;27.676;2023-07-29T14:05:32;0.90;;;0.90;;
64678;SDS011;51094;53.864;27.676;2023-07-29T14:07:59;1.02;;;1.02;;
64678;SDS011;51094;53.864;27.676;2023-07-29T14:10:26;1.17;;;1.17;;
64678;SDS011;51094;53.864;27.676;2023-07-29T14:12:53;1.10;;;1.10;;
64678;SDS011;51094;53.864;27.676;2023-07-29T14:15:20;0.93;;;0.93;;
64678;SDS011;51094;53.864;27.676;2023-07-29T14:17:48;0.88;;;0.88;;
64678;SDS011;51094;53.864;27.676;2023-07-29T14:20:15;0.88;;;0.88;;
64678;SDS011;51094;53.864;27.676;2023-07-29T14:22:42;0.95;;;0.95;;
64678;SDS011;51094;53.864;27.676;2023-07-29T14:25:09;0.80;;;0.80;;
64678;SDS011;51094;53.864;27.676;2023-07-29T14:27:37;0.80;;;0.80;;
64678;SDS011;51094;53.864;27.676;2023-07-29T14:30:04;0.77;;;0.77;;
64678;SDS011;51094;53.864;27.676;2023-07-29T14:32:32;0.73;;;0.73;;
64678;SDS011;51094;53.864;27.676;2023-07-29T14:34:59;0.80;;;0.80;;
64678;SDS011;51094;53.864;27.676;2023-07-29T14:37:30;0.70;;;0.70;;
64678;SDS011;51094;53.864;27.676;2023-07-29T14:39:58;0.70;;;0.70;;
64678;SDS011;51094;53.864;27.676;2023-07-29T14:42:25;0.80;;;0.80;;
64678;SDS011;51094;53.864;27.676;2023-07-29T14:44:52;0.90;;;0.90;;
64678;SDS011;51094;53.864;27.676;2023-07-29T14:47:20;0.80;;;0.80;;
64678;SDS011;51094;53.864;27.676;2023-07-29T14:49:46;0.80;;;0.80;;
64678;SDS011;51094;53.864;27.676;2023-07-29T14:52:13;0.90;;;0.90;;
64678;SDS011;51094;53.864;27.676;2023-07-29T14:54:40;3.22;;;3.22;;
64678;SDS011;51094;53.864;27.676;2023-07-29T14:57:07;1.00;;;1.00;;
64678;SDS011;51094;53.864;27.676;2023-07-29T14:59:36;0.90;;;0.90;;